sensor_id;sensor_type;location;lat;lon;timestamp;pressure;altitude;pressure_sealevel;temperature;humidity
65659;BME280;60181;53.258;6.932;2023-12-20T00:03:03;101350.09;;;15.65;68.19
65659;BME280;60181;53.258;6.932;2023-12-20T00:07:15;101342.17;;;15.65;68.21
65659;BME280;60181;53.258;6.932;2023-12-20T00:11:27;101335.15;;;15.65;68.15
65659;BME280;60181;53.258;6.932;2023-12-20T00:15:39;101329.04;;;15.65;68.09
65659;BME280;60181;53.258;6.932;2023-12-20T00:19:51;101323.92;;;15.65;68.02
65659;BME280;60181;53.258;6.932;2023-12-20T00:24:03;101319.46;;;15.65;68.20
65659;BME280;60181;53.258;6.932;2023-12-20T00:28:15;101316.56;;;15.65;68.25
65659;BME280;60181;53.258;6.932;2023-12-20T00:32:27;101311.94;;;15.65;68.24
65659;BME280;60181;53.258;6.932;2023-12-20T00:36:39;101308.06;;;15.65;68.19
65659;BME280;60181;53.258;6.932;2023-12-20T00:40:51;101305.51;;;15.65;68.22
65659;BME280;60181;53.258;6.932;2023-12-20T00:45:03;101304.44;;;15.65;68.33
65659;BME280;60181;53.258;6.932;2023-12-20T00:49:15;101304.33;;;15.64;68.33
65659;BME280;60181;53.258;6.932;2023-12-20T00:53:27;101302.19;;;15.64;68.40
65659;BME280;60181;53.258;6.932;2023-12-20T00:57:39;101299.63;;;15.64;68.49
65659;BME280;60181;53.258;6.932;2023-12-20T01:01:51;101295.31;;;15.63;68.56
65659;BME280;60181;53.258;6.932;2023-12-20T01:06:03;101288.95;;;15.63;68.71
65659;BME280;60181;53.258;6.932;2023-12-20T01:10:15;101283.92;;;15.63;68.79
65659;BME280;60181;53.258;6.932;2023-12-20T01:14:27;101278.28;;;15.62;68.95
65659;BME280;60181;53.258;6.932;2023-12-20T01:18:39;101274.56;;;15.62;69.00
65659;BME280;60181;53.258;6.932;2023-12-20T01:22:51;101271.92;;;15.62;69.11
65659;BME280;60181;53.258;6.932;2023-12-20T01:27:03;101269.53;;;15.62;69.23
65659;BME280;60181;53.258;6.932;2023-12-20T01:31:15;101266.99;;;15.61;69.31
65659;BME280;60181;53.258;6.932;2023-12-20T01:35:27;101263.75;;;15.62;69.07
65659;BME280;60181;53.258;6.932;2023-12-20T01:39:39;101262.77;;;15.62;69.45
65659;BME280;60181;53.258;6.932;2023-12-20T01:43:51;101262.85;;;15.61;69.18
65659;BME280;60181;53.258;6.932;2023-12-20T01:48:03;101261.53;;;15.61;69.40
65659;BME280;60181;53.258;6.932;2023-12-20T01:52:15;101262.17;;;15.61;69.45
65659;BME280;60181;53.258;6.932;2023-12-20T01:56:27;101263.48;;;15.61;69.36
65659;BME280;60181;53.258;6.932;2023-12-20T02:00:39;101263.32;;;15.61;68.56
65659;BME280;60181;53.258;6.932;2023-12-20T02:04:51;101262.58;;;15.61;68.44
65659;BME280;60181;53.258;6.932;2023-12-20T02:09:03;101258.72;;;15.61;68.62
65659;BME280;60181;53.258;6.932;2023-12-20T02:13:15;101253.00;;;15.61;69.21
65659;BME280;60181;53.258;6.932;2023-12-20T02:17:27;101245.51;;;15.61;68.26
65659;BME280;60181;53.258;6.932;2023-12-20T02:21:39;101240.39;;;15.61;68.24
65659;BME280;60181;53.258;6.932;2023-12-20T02:25:51;101236.65;;;15.61;68.54
65659;BME280;60181;53.258;6.932;2023-12-20T02:30:03;101230.46;;;15.61;67.97
65659;BME280;60181;53.258;6.932;2023-12-20T02:34:15;101224.27;;;15.61;68.25
65659;BME280;60181;53.258;6.932;2023-12-20T02:38:27;101217.75;;;15.60;68.31
65659;BME280;60181;53.258;6.932;2023-12-20T02:42:39;101213.44;;;15.60;67.85
65659;BME280;60181;53.258;6.932;2023-12-20T02:46:51;101209.14;;;15.59;67.90
65659;BME280;60181;53.258;6.932;2023-12-20T02:51:03;101205.16;;;15.59;67.83
65659;BME280;60181;53.258;6.932;2023-12-20T02:55:15;101203.19;;;15.58;67.73
65659;BME280;60181;53.258;6.932;2023-12-20T02:59:27;101199.53;;;15.58;67.79
65659;BME280;60181;53.258;6.932;2023-12-20T03:03:39;101195.33;;;15.57;67.87
65659;BME280;60181;53.258;6.932;2023-12-20T03:07:51;101190.43;;;15.57;68.30
65659;BME280;60181;53.258;6.932;2023-12-20T03:12:03;101184.48;;;15.57;68.33
65659;BME280;60181;53.258;6.932;2023-12-20T03:16:15;101179.05;;;15.56;67.92
65659;BME280;60181;53.258;6.932;2023-12-20T03:20:27;101173.44;;;15.56;68.32
65659;BME280;60181;53.258;6.932;2023-12-20T03:24:39;101166.82;;;15.55;68.58
65659;BME280;60181;53.258;6.932;2023-12-20T03:28:51;101161.21;;;15.55;68.58
65659;BME280;60181;53.258;6.932;2023-12-20T03:33:03;101158.61;;;15.54;68.76
65659;BME280;60181;53.258;6.932;2023-12-20T03:37:15;101156.39;;;15.54;68.74
65659;BME280;60181;53.258;6.932;2023-12-20T03:41:27;101153.17;;;15.54;68.52
65659;BME280;60181;53.258;6.932;2023-12-20T03:45:39;101152.98;;;15.53;68.62
65659;BME280;60181;53.258;6.932;2023-12-20T03:49:51;101148.95;;;15.53;68.63
65659;BME280;60181;53.258;6.932;2023-12-20T03:54:03;101146.36;;;15.52;68.65
65659;BME280;60181;53.258;6.932;2023-12-20T03:58:15;101143.40;;;15.52;68.53
65659;BME280;60181;53.258;6.932;2023-12-20T04:02:27;101141.17;;;15.52;68.60
65659;BME280;60181;53.258;6.932;2023-12-20T04:06:39;101139.00;;;15.51;68.48
65659;BME280;60181;53.258;6.932;2023-12-20T04:10:51;101136.70;;;15.50;68.58
65659;BME280;60181;53.258;6.932;2023-12-20T04:15:03;101135.47;;;15.50;68.59
65659;BME280;60181;53.258;6.932;2023-12-20T04:19:15;101131.90;;;15.49;68.54
65659;BME280;60181;53.258;6.932;2023-12-20T04:23:27;101128.82;;;15.49;68.58
65659;BME280;60181;53.258;6.932;2023-12-20T04:27:39;101125.20;;;15.48;68.58
65659;BME280;60181;53.258;6.932;2023-12-20T04:31:51;101121.22;;;15.48;68.56
65659;BME280;60181;53.258;6.932;2023-12-20T04:36:03;101117.60;;;15.47;68.71
65659;BME280;60181;53.258;6.932;2023-12-20T04:40:15;101115.86;;;15.47;68.58
65659;BME280;60181;53.258;6.932;2023-12-20T04:44:27;101112.37;;;15.46;68.63
65659;BME280;60181;53.258;6.932;2023-12-20T04:48:39;101108.47;;;15.46;68.67
65659;BME280;60181;53.258;6.932;2023-12-20T04:52:51;101105.25;;;15.45;68.77
65659;BME280;60181;53.258;6.932;2023-12-20T04:57:03;101104.93;;;15.45;68.45
65659;BME280;60181;53.258;6.932;2023-12-20T05:01:15;101106.72;;;15.44;68.53
65659;BME280;60181;53.258;6.932;2023-12-20T05:05:27;101108.29;;;15.44;68.55
65659;BME280;60181;53.258;6.932;2023-12-20T05:09:39;101108.31;;;15.43;68.40
65659;BME280;60181;53.258;6.932;2023-12-20T05:13:51;101109.11;;;15.43;68.49
65659;BME280;60181;53.258;6.932;2023-12-20T05:18:03;101109.45;;;15.42;68.42
65659;BME280;60181;53.258;6.932;2023-12-20T05:22:15;101110.08;;;15.42;68.36
65659;BME280;60181;53.258;6.932;2023-12-20T05:26:27;101109.59;;;15.41;68.31
65659;BME280;60181;53.258;6.932;2023-12-20T05:30:39;101106.76;;;15.41;68.25
65659;BME280;60181;53.258;6.932;2023-12-20T05:34:51;101103.89;;;15.40;68.37
65659;BME280;60181;53.258;6.932;2023-12-20T05:39:03;101101.14;;;15.40;68.39
65659;BME280;60181;53.258;6.932;2023-12-20T05:43:15;101098.50;;;15.39;68.45
65659;BME280;60181;53.258;6.932;2023-12-20T05:47:27;101095.95;;;15.39;68.39
65659;BME280;60181;53.258;6.932;2023-12-20T05:51:39;101094.35;;;15.39;68.45
65659;BME280;60181;53.258;6.932;2023-12-20T05:55:51;101091.63;;;15.39;68.41
65659;BME280;60181;53.258;6.932;2023-12-20T06:00:03;101084.20;;;15.39;68.37
65659;BME280;60181;53.258;6.932;2023-12-20T06:04:15;101079.75;;;15.38;68.41
65659;BME280;60181;53.258;6.932;2023-12-20T06:08:27;101077.25;;;15.38;68.37
65659;BME280;60181;53.258;6.932;2023-12-20T06:12:39;101074.78;;;15.37;68.35
65659;BME280;60181;53.258;6.932;2023-12-20T06:16:51;101071.12;;;15.37;68.24
65659;BME280;60181;53.258;6.932;2023-12-20T06:21:03;101068.48;;;15.37;68.54
65659;BME280;60181;53.258;6.932;2023-12-20T06:25:15;101064.64;;;15.37;68.27
65659;BME280;60181;53.258;6.932;2023-12-20T06:29:26;101061.33;;;15.37;68.56
65659;BME280;60181;53.258;6.932;2023-12-20T06:33:38;101058.03;;;15.37;68.71
65659;BME280;60181;53.258;6.932;2023-12-20T06:37:50;101055.22;;;15.36;67.52
65659;BME280;60181;53.258;6.932;2023-12-20T06:42:03;101051.29;;;15.34;66.93
65659;BME280;60181;53.258;6.932;2023-12-20T06:46:14;101046.36;;;15.33;67.49
65659;BME280;60181;53.258;6.932;2023-12-20T06:50:26;101041.89;;;15.32;67.17
65659;BME280;60181;53.258;6.932;2023-12-20T06:54:38;101038.98;;;15.32;67.08
65659;BME280;60181;53.258;6.932;2023-12-20T06:58:50;101035.42;;;15.30;67.27
65659;BME280;60181;53.258;6.932;2023-12-20T07:03:02;101032.01;;;15.30;67.26
65659;BME280;60181;53.258;6.932;2023-12-20T07:07:14;101028.94;;;15.29;67.42
65659;BME280;60181;53.258;6.932;2023-12-20T07:11:26;101024.97;;;15.27;67.63
65659;BME280;60181;53.258;6.932;2023-12-20T07:15:39;101021.17;;;15.26;67.92
65659;BME280;60181;53.258;6.932;2023-12-20T07:19:50;101016.28;;;15.25;67.77
65659;BME280;60181;53.258;6.932;2023-12-20T07:24:03;101013.23;;;15.25;67.71
65659;BME280;60181;53.258;6.932;2023-12-20T07:28:14;101008.50;;;15.24;67.75
65659;BME280;60181;53.258;6.932;2023-12-20T07:32:26;101004.88;;;15.24;67.82
65659;BME280;60181;53.258;6.932;2023-12-20T07:36:38;101000.82;;;15.23;68.03
65659;BME280;60181;53.258;6.932;2023-12-20T07:40:50;100999.43;;;15.22;68.04
65659;BME280;60181;53.258;6.932;2023-12-20T07:45:03;100998.08;;;15.22;68.01
65659;BME280;60181;53.258;6.932;2023-12-20T07:49:14;100996.61;;;15.21;67.97
65659;BME280;60181;53.258;6.932;2023-12-20T07:53:26;100995.67;;;15.21;67.97
65659;BME280;60181;53.258;6.932;2023-12-20T07:57:38;100996.51;;;15.20;68.02
65659;BME280;60181;53.258;6.932;2023-12-20T08:01:50;100997.51;;;15.20;68.01
65659;BME280;60181;53.258;6.932;2023-12-20T08:06:03;100998.47;;;15.19;68.01
65659;BME280;60181;53.258;6.932;2023-12-20T08:10:14;101000.95;;;15.19;67.97
65659;BME280;60181;53.258;6.932;2023-12-20T08:14:26;101004.14;;;15.19;68.02
65659;BME280;60181;53.258;6.932;2023-12-20T08:18:39;101004.65;;;15.18;68.04
65659;BME280;60181;53.258;6.932;2023-12-20T08:22:50;101005.81;;;15.18;68.02
65659;BME280;60181;53.258;6.932;2023-12-20T08:27:03;101005.24;;;15.18;68.06
65659;BME280;60181;53.258;6.932;2023-12-20T08:31:15;101005.81;;;15.18;68.00
65659;BME280;60181;53.258;6.932;2023-12-20T08:35:26;101003.99;;;15.18;68.04
65659;BME280;60181;53.258;6.932;2023-12-20T08:39:38;101003.58;;;15.18;68.03
65659;BME280;60181;53.258;6.932;2023-12-20T08:43:50;101012.06;;;15.19;67.99
65659;BME280;60181;53.258;6.932;2023-12-20T08:48:03;101026.45;;;15.19;67.98
65659;BME280;60181;53.258;6.932;2023-12-20T08:52:14;101036.43;;;15.19;67.96
65659;BME280;60181;53.258;6.932;2023-12-20T08:56:26;101042.94;;;15.20;68.04
65659;BME280;60181;53.258;6.932;2023-12-20T09:00:38;101046.41;;;15.20;67.97
65659;BME280;60181;53.258;6.932;2023-12-20T09:04:50;101055.27;;;15.20;68.01
65659;BME280;60181;53.258;6.932;2023-12-20T09:09:02;101063.67;;;15.20;68.00
65659;BME280;60181;53.258;6.932;2023-12-20T09:13:14;101066.89;;;15.21;68.02
65659;BME280;60181;53.258;6.932;2023-12-20T09:17:26;101067.32;;;15.22;67.98
65659;BME280;60181;53.258;6.932;2023-12-20T09:21:38;101070.12;;;15.22;67.99
65659;BME280;60181;53.258;6.932;2023-12-20T09:25:50;101073.03;;;15.23;67.94
65659;BME280;60181;53.258;6.932;2023-12-20T09:30:03;101075.53;;;15.23;67.96
65659;BME280;60181;53.258;6.932;2023-12-20T09:34:15;101079.97;;;15.24;67.87
65659;BME280;60181;53.258;6.932;2023-12-20T09:38:26;101084.53;;;15.25;67.89
65659;BME280;60181;53.258;6.932;2023-12-20T09:42:48;101088.09;;;15.26;67.90
65659;BME280;60181;53.258;6.932;2023-12-20T09:46:50;101092.21;;;15.26;67.85
65659;BME280;60181;53.258;6.932;2023-12-20T09:51:03;101095.78;;;15.27;67.86
65659;BME280;60181;53.258;6.932;2023-12-20T09:55:14;101099.44;;;15.29;68.12
65659;BME280;60181;53.258;6.932;2023-12-20T09:59:26;101103.64;;;15.35;68.35
65659;BME280;60181;53.258;6.932;2023-12-20T10:03:38;101110.05;;;15.38;68.41
65659;BME280;60181;53.258;6.932;2023-12-20T10:07:50;101113.84;;;15.40;68.44
65659;BME280;60181;53.258;6.932;2023-12-20T10:12:02;101115.85;;;15.40;68.43
65659;BME280;60181;53.258;6.932;2023-12-20T10:16:14;101116.44;;;15.40;68.48
65659;BME280;60181;53.258;6.932;2023-12-20T10:20:26;101115.52;;;15.40;68.30
65659;BME280;60181;53.258;6.932;2023-12-20T10:24:39;101114.12;;;15.42;68.13
65659;BME280;60181;53.258;6.932;2023-12-20T10:28:53;101115.63;;;15.43;68.14
65659;BME280;60181;53.258;6.932;2023-12-20T10:33:02;101115.73;;;15.43;68.12
65659;BME280;60181;53.258;6.932;2023-12-20T10:37:14;101114.81;;;15.44;68.07
65659;BME280;60181;53.258;6.932;2023-12-20T10:41:29;101111.70;;;15.45;68.03
65659;BME280;60181;53.258;6.932;2023-12-20T10:45:38;101108.91;;;15.46;67.96
65659;BME280;60181;53.258;6.932;2023-12-20T10:49:50;101106.92;;;15.46;67.97
65659;BME280;60181;53.258;6.932;2023-12-20T10:54:02;101105.77;;;15.46;68.02
65659;BME280;60181;53.258;6.932;2023-12-20T10:58:15;101102.36;;;15.46;67.99
65659;BME280;60181;53.258;6.932;2023-12-20T11:02:26;101097.00;;;15.45;67.95
65659;BME280;60181;53.258;6.932;2023-12-20T11:06:54;101091.55;;;15.45;67.98
65659;BME280;60181;53.258;6.932;2023-12-20T11:10:58;101086.84;;;15.46;67.96
65659;BME280;60181;53.258;6.932;2023-12-20T11:15:02;101084.64;;;15.46;67.92
65659;BME280;60181;53.258;6.932;2023-12-20T11:19:14;101082.50;;;15.46;67.94
65659;BME280;60181;53.258;6.932;2023-12-20T11:23:26;101079.69;;;15.46;67.94
65659;BME280;60181;53.258;6.932;2023-12-20T11:27:41;101077.70;;;15.46;67.96
65659;BME280;60181;53.258;6.932;2023-12-20T11:31:50;101076.28;;;15.46;67.97
65659;BME280;60181;53.258;6.932;2023-12-20T11:36:02;101075.04;;;15.45;67.94
65659;BME280;60181;53.258;6.932;2023-12-20T11:40:15;101073.47;;;15.45;67.92
65659;BME280;60181;53.258;6.932;2023-12-20T11:44:26;101071.42;;;15.45;67.94
65659;BME280;60181;53.258;6.932;2023-12-20T11:48:38;101069.25;;;15.44;67.98
65659;BME280;60181;53.258;6.932;2023-12-20T11:52:51;101068.43;;;15.44;67.95
65659;BME280;60181;53.258;6.932;2023-12-20T11:57:02;101069.67;;;15.43;67.93
65659;BME280;60181;53.258;6.932;2023-12-20T12:01:14;101070.31;;;15.43;67.96
65659;BME280;60181;53.258;6.932;2023-12-20T12:05:26;101069.65;;;15.42;67.91
65659;BME280;60181;53.258;6.932;2023-12-20T12:09:38;101066.99;;;15.42;67.93
65659;BME280;60181;53.258;6.932;2023-12-20T12:13:50;101064.20;;;15.41;67.92
65659;BME280;60181;53.258;6.932;2023-12-20T12:18:02;101060.05;;;15.41;67.90
65659;BME280;60181;53.258;6.932;2023-12-20T12:22:14;101054.03;;;15.40;67.89
65659;BME280;60181;53.258;6.932;2023-12-20T12:26:26;101047.33;;;15.39;67.89
65659;BME280;60181;53.258;6.932;2023-12-20T12:30:38;101042.02;;;15.39;67.89
65659;BME280;60181;53.258;6.932;2023-12-20T12:34:50;101039.31;;;15.38;67.90
65659;BME280;60181;53.258;6.932;2023-12-20T12:39:02;101037.64;;;15.38;67.94
65659;BME280;60181;53.258;6.932;2023-12-20T12:43:14;101033.10;;;15.37;67.91
65659;BME280;60181;53.258;6.932;2023-12-20T12:47:26;101032.03;;;15.37;67.90
65659;BME280;60181;53.258;6.932;2023-12-20T12:51:38;101031.27;;;15.36;67.93
65659;BME280;60181;53.258;6.932;2023-12-20T12:55:50;101031.94;;;15.36;67.94
65659;BME280;60181;53.258;6.932;2023-12-20T13:00:02;101032.08;;;15.35;67.92
65659;BME280;60181;53.258;6.932;2023-12-20T13:04:14;101031.42;;;15.35;67.93
65659;BME280;60181;53.258;6.932;2023-12-20T13:08:26;101030.00;;;15.34;67.95
65659;BME280;60181;53.258;6.932;2023-12-20T13:12:38;101029.19;;;15.33;67.97
65659;BME280;60181;53.258;6.932;2023-12-20T13:16:50;101027.84;;;15.33;67.91
65659;BME280;60181;53.258;6.932;2023-12-20T13:21:02;101026.45;;;15.33;67.92
65659;BME280;60181;53.258;6.932;2023-12-20T13:25:14;101025.93;;;15.32;67.89
65659;BME280;60181;53.258;6.932;2023-12-20T13:29:26;101024.11;;;15.32;67.86
65659;BME280;60181;53.258;6.932;2023-12-20T13:33:38;101019.00;;;15.32;67.89
65659;BME280;60181;53.258;6.932;2023-12-20T13:37:50;101014.87;;;15.32;67.89
65659;BME280;60181;53.258;6.932;2023-12-20T13:42:02;101010.18;;;15.31;67.91
65659;BME280;60181;53.258;6.932;2023-12-20T13:46:14;101006.36;;;15.31;67.93
65659;BME280;60181;53.258;6.932;2023-12-20T13:50:26;101003.49;;;15.30;67.97
65659;BME280;60181;53.258;6.932;2023-12-20T13:54:38;101001.48;;;15.30;67.99
65659;BME280;60181;53.258;6.932;2023-12-20T13:58:50;100997.61;;;15.29;67.94
65659;BME280;60181;53.258;6.932;2023-12-20T14:03:03;100994.87;;;15.28;67.96
65659;BME280;60181;53.258;6.932;2023-12-20T14:07:14;100993.14;;;15.28;67.97
65659;BME280;60181;53.258;6.932;2023-12-20T14:11:26;100989.98;;;15.28;68.01
65659;BME280;60181;53.258;6.932;2023-12-20T14:15:38;100988.25;;;15.27;67.95
65659;BME280;60181;53.258;6.932;2023-12-20T14:19:50;100986.69;;;15.27;67.97
65659;BME280;60181;53.258;6.932;2023-12-20T14:24:02;100984.79;;;15.27;67.93
65659;BME280;60181;53.258;6.932;2023-12-20T14:28:14;100980.92;;;15.27;67.98
65659;BME280;60181;53.258;6.932;2023-12-20T14:32:26;100976.93;;;15.26;67.99
65659;BME280;60181;53.258;6.932;2023-12-20T14:36:38;100975.62;;;15.26;67.96
65659;BME280;60181;53.258;6.932;2023-12-20T14:40:50;100975.04;;;15.26;67.98
65659;BME280;60181;53.258;6.932;2023-12-20T14:45:02;100976.01;;;15.26;67.92
65659;BME280;60181;53.258;6.932;2023-12-20T14:49:14;100978.61;;;15.27;67.94
65659;BME280;60181;53.258;6.932;2023-12-20T14:53:26;100984.38;;;15.27;67.95
65659;BME280;60181;53.258;6.932;2023-12-20T14:57:38;100986.52;;;15.27;67.97
65659;BME280;60181;53.258;6.932;2023-12-20T15:01:50;100984.54;;;15.27;67.99
65659;BME280;60181;53.258;6.932;2023-12-20T15:06:02;100981.82;;;15.27;67.99
65659;BME280;60181;53.258;6.932;2023-12-20T15:10:14;100979.85;;;15.27;67.98
65659;BME280;60181;53.258;6.932;2023-12-20T15:14:26;100975.86;;;15.26;68.04
65659;BME280;60181;53.258;6.932;2023-12-20T15:18:38;100971.99;;;15.26;68.00
65659;BME280;60181;53.258;6.932;2023-12-20T15:22:50;100968.33;;;15.25;68.00
65659;BME280;60181;53.258;6.932;2023-12-20T15:27:02;100964.22;;;15.25;67.99
65659;BME280;60181;53.258;6.932;2023-12-20T15:31:14;100961.63;;;15.24;68.01
65659;BME280;60181;53.258;6.932;2023-12-20T15:35:26;100960.40;;;15.24;67.98
65659;BME280;60181;53.258;6.932;2023-12-20T15:39:38;100960.66;;;15.24;67.96
65659;BME280;60181;53.258;6.932;2023-12-20T15:43:50;100959.91;;;15.24;67.96
65659;BME280;60181;53.258;6.932;2023-12-20T15:48:02;100958.01;;;15.23;67.96
65659;BME280;60181;53.258;6.932;2023-12-20T15:52:14;100954.37;;;15.23;67.97
65659;BME280;60181;53.258;6.932;2023-12-20T15:56:26;100952.39;;;15.23;67.92
65659;BME280;60181;53.258;6.932;2023-12-20T16:00:38;100949.58;;;15.23;67.93
65659;BME280;60181;53.258;6.932;2023-12-20T16:04:50;100948.42;;;15.23;67.93
65659;BME280;60181;53.258;6.932;2023-12-20T16:09:02;100947.19;;;15.23;67.93
65659;BME280;60181;53.258;6.932;2023-12-20T16:13:14;100945.12;;;15.23;67.93
65659;BME280;60181;53.258;6.932;2023-12-20T16:17:26;100939.36;;;15.22;67.89
65659;BME280;60181;53.258;6.932;2023-12-20T16:21:38;100933.42;;;15.22;67.96
65659;BME280;60181;53.258;6.932;2023-12-20T16:25:50;100926.54;;;15.22;67.91
65659;BME280;60181;53.258;6.932;2023-12-20T16:30:02;100921.09;;;15.22;67.89
65659;BME280;60181;53.258;6.932;2023-12-20T16:34:14;100914.42;;;15.22;67.89
65659;BME280;60181;53.258;6.932;2023-12-20T16:38:26;100906.50;;;15.22;67.90
65659;BME280;60181;53.258;6.932;2023-12-20T16:42:38;100897.50;;;15.22;67.92
65659;BME280;60181;53.258;6.932;2023-12-20T16:46:50;100887.36;;;15.21;67.90
65659;BME280;60181;53.258;6.932;2023-12-20T16:51:02;100878.34;;;15.21;67.93
65659;BME280;60181;53.258;6.932;2023-12-20T16:55:14;100871.00;;;15.21;67.88
65659;BME280;60181;53.258;6.932;2023-12-20T16:59:26;100863.00;;;15.20;67.87
65659;BME280;60181;53.258;6.932;2023-12-20T17:03:38;100854.35;;;15.20;67.88
65659;BME280;60181;53.258;6.932;2023-12-20T17:07:50;100844.42;;;15.20;67.87
65659;BME280;60181;53.258;6.932;2023-12-20T17:12:02;100835.18;;;15.20;67.86
65659;BME280;60181;53.258;6.932;2023-12-20T17:16:14;100825.70;;;15.19;67.86
65659;BME280;60181;53.258;6.932;2023-12-20T17:20:26;100816.88;;;15.19;67.85
65659;BME280;60181;53.258;6.932;2023-12-20T17:24:38;100809.53;;;15.19;67.89
65659;BME280;60181;53.258;6.932;2023-12-20T17:28:50;100804.42;;;15.19;67.85
65659;BME280;60181;53.258;6.932;2023-12-20T17:33:02;100797.16;;;15.19;67.85
65659;BME280;60181;53.258;6.932;2023-12-20T17:37:14;100787.97;;;15.19;67.85
65659;BME280;60181;53.258;6.932;2023-12-20T17:41:26;100778.74;;;15.19;67.89
65659;BME280;60181;53.258;6.932;2023-12-20T17:45:38;100769.49;;;15.19;67.80
65659;BME280;60181;53.258;6.932;2023-12-20T17:49:50;100761.41;;;15.19;67.84
65659;BME280;60181;53.258;6.932;2023-12-20T17:54:02;100753.27;;;15.19;67.89
65659;BME280;60181;53.258;6.932;2023-12-20T17:58:14;100744.26;;;15.19;67.86
65659;BME280;60181;53.258;6.932;2023-12-20T18:02:26;100735.85;;;15.19;67.86
65659;BME280;60181;53.258;6.932;2023-12-20T18:06:38;100725.76;;;15.19;67.86
65659;BME280;60181;53.258;6.932;2023-12-20T18:10:50;100715.81;;;15.19;67.85
65659;BME280;60181;53.258;6.932;2023-12-20T18:15:02;100704.00;;;15.19;67.85
65659;BME280;60181;53.258;6.932;2023-12-20T18:19:14;100690.72;;;15.19;67.85
65659;BME280;60181;53.258;6.932;2023-12-20T18:23:26;100677.91;;;15.19;67.87
65659;BME280;60181;53.258;6.932;2023-12-20T18:27:38;100667.44;;;15.18;67.87
65659;BME280;60181;53.258;6.932;2023-12-20T18:31:50;100658.69;;;15.18;67.91
65659;BME280;60181;53.258;6.932;2023-12-20T18:36:02;100650.76;;;15.18;67.88
65659;BME280;60181;53.258;6.932;2023-12-20T18:40:13;100642.28;;;15.18;67.86
65659;BME280;60181;53.258;6.932;2023-12-20T18:44:26;100634.12;;;15.18;67.95
65659;BME280;60181;53.258;6.932;2023-12-20T18:48:37;100626.25;;;15.18;67.92
65659;BME280;60181;53.258;6.932;2023-12-20T18:52:49;100617.10;;;15.17;67.91
65659;BME280;60181;53.258;6.932;2023-12-20T18:57:02;100607.29;;;15.17;67.90
65659;BME280;60181;53.258;6.932;2023-12-20T19:01:13;100598.47;;;15.17;67.98
65659;BME280;60181;53.258;6.932;2023-12-20T19:05:25;100591.53;;;15.17;67.88
65659;BME280;60181;53.258;6.932;2023-12-20T19:09:37;100583.10;;;15.16;67.90
65659;BME280;60181;53.258;6.932;2023-12-20T19:13:49;100575.11;;;15.16;67.90
65659;BME280;60181;53.258;6.932;2023-12-20T19:18:02;100567.68;;;15.16;67.84
65659;BME280;60181;53.258;6.932;2023-12-20T19:22:13;100560.58;;;15.16;67.88
65659;BME280;60181;53.258;6.932;2023-12-20T19:26:25;100553.49;;;15.16;67.89
65659;BME280;60181;53.258;6.932;2023-12-20T19:30:37;100546.06;;;15.16;67.90
65659;BME280;60181;53.258;6.932;2023-12-20T19:34:49;100539.14;;;15.16;67.90
65659;BME280;60181;53.258;6.932;2023-12-20T19:39:02;100532.93;;;15.16;67.87
65659;BME280;60181;53.258;6.932;2023-12-20T19:43:13;100527.17;;;15.16;67.87
65659;BME280;60181;53.258;6.932;2023-12-20T19:47:25;100523.71;;;15.16;67.89
65659;BME280;60181;53.258;6.932;2023-12-20T19:51:37;100519.33;;;15.17;67.96
65659;BME280;60181;53.258;6.932;2023-12-20T19:55:49;100514.04;;;15.17;67.87
65659;BME280;60181;53.258;6.932;2023-12-20T20:00:02;100509.20;;;15.17;67.88
65659;BME280;60181;53.258;6.932;2023-12-20T20:04:13;100505.57;;;15.17;67.92
65659;BME280;60181;53.258;6.932;2023-12-20T20:08:25;100502.27;;;15.17;67.93
65659;BME280;60181;53.258;6.932;2023-12-20T20:12:38;100499.38;;;15.17;67.96
65659;BME280;60181;53.258;6.932;2023-12-20T20:16:49;100497.24;;;15.17;67.93
65659;BME280;60181;53.258;6.932;2023-12-20T20:21:01;100495.09;;;15.17;67.92
65659;BME280;60181;53.258;6.932;2023-12-20T20:25:14;100491.94;;;15.17;67.91
65659;BME280;60181;53.258;6.932;2023-12-20T20:29:25;100489.23;;;15.17;67.91
65659;BME280;60181;53.258;6.932;2023-12-20T20:33:37;100486.10;;;15.17;67.93
65659;BME280;60181;53.258;6.932;2023-12-20T20:37:49;100482.79;;;15.17;67.92
65659;BME280;60181;53.258;6.932;2023-12-20T20:42:01;100476.51;;;15.16;67.97
65659;BME280;60181;53.258;6.932;2023-12-20T20:46:14;100472.88;;;15.16;67.99
65659;BME280;60181;53.258;6.932;2023-12-20T20:50:25;100467.21;;;15.16;67.98
65659;BME280;60181;53.258;6.932;2023-12-20T20:54:37;100458.54;;;15.16;67.98
65659;BME280;60181;53.258;6.932;2023-12-20T20:58:49;100450.37;;;15.16;68.01
65659;BME280;60181;53.258;6.932;2023-12-20T21:03:01;100441.03;;;15.15;68.00
65659;BME280;60181;53.258;6.932;2023-12-20T21:07:13;100432.97;;;15.16;68.04
65659;BME280;60181;53.258;6.932;2023-12-20T21:11:25;100427.76;;;15.16;68.00
65659;BME280;60181;53.258;6.932;2023-12-20T21:15:37;100428.50;;;15.16;68.05
65659;BME280;60181;53.258;6.932;2023-12-20T21:19:49;100432.12;;;15.16;68.10
65659;BME280;60181;53.258;6.932;2023-12-20T21:24:01;100433.62;;;15.16;68.12
65659;BME280;60181;53.258;6.932;2023-12-20T21:28:13;100435.28;;;15.16;68.12
65659;BME280;60181;53.258;6.932;2023-12-20T21:32:25;100438.75;;;15.16;68.11
65659;BME280;60181;53.258;6.932;2023-12-20T21:36:37;100439.98;;;15.16;68.14
65659;BME280;60181;53.258;6.932;2023-12-20T21:40:49;100441.20;;;15.15;68.17
65659;BME280;60181;53.258;6.932;2023-12-20T21:45:01;100442.44;;;15.15;68.11
65659;BME280;60181;53.258;6.932;2023-12-20T21:49:13;100441.14;;;15.15;68.13
65659;BME280;60181;53.258;6.932;2023-12-20T21:53:25;100437.34;;;15.15;68.18
65659;BME280;60181;53.258;6.932;2023-12-20T21:57:37;100433.04;;;15.15;68.46